カラチ の空港の天気 - METARとTAF

ジンナー国際空港(カラチ) ( OPKC / KHI ) - パキスタン Karachi
飛行場実況気象(Metar)
観測時間06/20 03:30 PKT (06/19 22:30 UTC)
風向・風速南西 4m/s
視程5000m
天気現象
少しの雲 雲底高度 610m
全天の4割程度の雲 雲底高度 910m
気温30℃
湿度75%
気圧1001hPa
METAROPKC 192230Z 22007KT 5000 FU FEW020 SCT030 30/25 Q1001 NOSIG
過去の天気等 Google飛行場航空写真 Wunderground天気予報

過去48時間のMETAR

飛行場予報(TAF)
発表時間: 6/19 20:30 PKT (6/19 15:30 UTC)
予報対象時間: 19日23時 PKT ~ 21日5時 PKT
風向・風速西 3m/s 瞬間風速 8m/s
視程5000m
天気現象煙霧
全天の4割程度の雲 雲底高度 910m
20日11時 PKT から
風向・風速南西 5m/s 瞬間風速 10m/s
20日23時 PKT ~ 21日1時 PKT に徐々に
風向・風速西 3m/s 瞬間風速 8m/s
視程5000m
天気現象煙霧
全天の4割程度の雲 雲底高度 910m
TAF OPKC 191530Z 1918/2024 27005G15KT 5000 HZ SCT030
FM 200600 23010G20KT 600 SCT030
BECMG 2018/2020 27005G15KT 5000 HZ SCT030